createdAt,value
2016-03-12T00:00:01.701Z,0
2016-03-12T00:01:01.720Z,0
2016-03-12T00:02:01.706Z,0
2016-03-12T00:03:01.709Z,0
2016-03-12T00:04:01.681Z,0
2016-03-12T00:05:01.730Z,0
2016-03-12T00:06:01.769Z,0
2016-03-12T00:07:01.697Z,0
2016-03-12T00:08:01.693Z,0
2016-03-12T00:09:01.679Z,0
2016-03-12T00:10:01.682Z,0
2016-03-12T00:11:01.684Z,0
2016-03-12T00:12:01.657Z,0
2016-03-12T00:13:01.674Z,0
2016-03-12T00:14:01.662Z,0
2016-03-12T00:15:01.679Z,0
2016-03-12T00:16:01.682Z,0
2016-03-12T00:17:01.669Z,0
2016-03-12T00:18:01.532Z,0
2016-03-12T00:19:01.675Z,0
2016-03-12T00:20:01.678Z,0
2016-03-12T00:21:01.758Z,0
2016-03-12T00:22:01.652Z,0
2016-03-12T00:23:01.670Z,0
2016-03-12T00:24:01.672Z,0
2016-03-12T00:25:01.660Z,0
2016-03-12T00:26:01.678Z,0
2016-03-12T00:27:01.634Z,0
2016-03-12T00:28:01.636Z,0
2016-03-12T00:29:01.671Z,0
2016-03-12T00:30:01.626Z,0
2016-03-12T00:31:01.661Z,0
2016-03-12T00:32:01.663Z,0
2016-03-12T00:33:01.635Z,0
2016-03-12T00:34:01.637Z,0
2016-03-12T00:35:01.640Z,0
2016-03-12T00:36:01.658Z,0
2016-03-12T00:37:01.614Z,0
2016-03-12T00:38:01.460Z,0
2016-03-12T00:39:01.619Z,0
2016-03-12T00:40:01.622Z,0
2016-03-12T00:41:01.640Z,0
2016-03-12T00:42:01.627Z,0
2016-03-12T00:43:01.598Z,0
2016-03-12T00:44:01.632Z,0
2016-03-12T00:45:01.620Z,0
2016-03-12T00:46:01.623Z,0
2016-03-12T00:47:01.640Z,0
2016-03-12T00:48:01.597Z,0
2016-03-12T00:49:01.614Z,0
2016-03-12T00:50:01.587Z,0
2016-03-12T00:51:01.605Z,0
2016-03-12T00:52:01.608Z,0
2016-03-12T00:53:01.611Z,0
2016-03-12T00:54:01.567Z,0
2016-03-12T00:55:01.616Z,0
2016-03-12T00:56:01.619Z,0
2016-03-12T00:57:01.574Z,0
2016-03-12T00:58:01.561Z,0
2016-03-12T00:59:01.595Z,0
2016-03-12T01:00:01.582Z,0
2016-03-12T01:01:01.569Z,0
2016-03-12T01:02:01.572Z,0
2016-03-12T01:03:01.558Z,0
2016-03-12T01:04:01.624Z,0
2016-03-12T01:05:01.643Z,0
2016-03-12T01:06:01.566Z,0
2016-03-12T01:07:01.555Z,0
2016-03-12T01:08:01.557Z,0
2016-03-12T01:09:01.560Z,0
2016-03-12T01:10:01.562Z,0
2016-03-12T01:11:01.565Z,0
2016-03-12T01:12:01.568Z,0
2016-03-12T01:13:01.571Z,0
2016-03-12T01:14:01.542Z,0
2016-03-12T01:15:01.560Z,0
2016-03-12T01:16:01.547Z,0
2016-03-12T01:17:01.565Z,0
2016-03-12T01:18:01.553Z,0
2016-03-12T01:19:01.540Z,0
2016-03-12T01:20:01.573Z,0
2016-03-12T01:21:01.529Z,0
2016-03-12T01:22:01.532Z,0
2016-03-12T01:23:01.519Z,0
2016-03-12T01:24:01.522Z,0
2016-03-12T01:25:01.539Z,0
2016-03-12T01:26:01.527Z,0
2016-03-12T01:27:01.530Z,0
2016-03-12T01:28:01.517Z,0
2016-03-12T01:29:01.535Z,0
2016-03-12T01:30:01.506Z,0
2016-03-12T01:31:01.509Z,0
2016-03-12T01:32:01.528Z,0
2016-03-12T01:33:01.499Z,0
2016-03-12T01:34:01.502Z,0
2016-03-12T01:35:01.489Z,0
2016-03-12T01:36:01.522Z,0
2016-03-12T01:37:01.494Z,0
2016-03-12T01:38:01.512Z,0
2016-03-12T01:39:01.484Z,0
2016-03-12T01:40:01.502Z,0
2016-03-12T01:41:01.505Z,0
2016-03-12T01:42:01.492Z,0
2016-03-12T01:43:01.495Z,0
2016-03-12T01:44:01.481Z,0
2016-03-12T01:45:01.468Z,0
2016-03-12T01:46:01.456Z,0
2016-03-12T01:47:01.537Z,0
2016-03-12T01:48:01.523Z,0
2016-03-12T01:49:01.496Z,0
2016-03-12T01:50:01.482Z,0
2016-03-12T01:51:01.470Z,0
2016-03-12T01:52:01.440Z,0
2016-03-12T01:53:01.459Z,0
2016-03-12T01:54:01.462Z,0
2016-03-12T01:55:01.481Z,0
2016-03-12T01:56:01.436Z,0
2016-03-12T01:57:01.438Z,0
2016-03-12T01:58:01.472Z,0
2016-03-12T01:59:01.413Z,0
2016-03-12T02:00:01.416Z,0
2016-03-12T02:01:01.449Z,0
2016-03-12T02:02:01.421Z,0
2016-03-12T02:03:01.439Z,0
2016-03-12T02:04:01.411Z,0
2016-03-12T02:05:01.413Z,0
2016-03-12T02:06:01.416Z,0
2016-03-12T02:07:01.402Z,0
2016-03-12T02:08:01.406Z,0
2016-03-12T02:09:01.440Z,0
2016-03-12T02:10:01.396Z,0
2016-03-12T02:11:01.398Z,0
2016-03-12T02:12:01.244Z,0
2016-03-12T02:13:01.372Z,0
2016-03-12T02:14:01.391Z,0
2016-03-12T02:15:01.221Z,0
2016-03-12T02:16:01.224Z,0
2016-03-12T02:17:01.368Z,0
2016-03-12T02:18:01.371Z,0
2016-03-12T02:19:01.373Z,0
2016-03-12T02:20:01.359Z,0
2016-03-12T02:21:01.378Z,0
2016-03-12T02:22:01.365Z,0
2016-03-12T02:23:01.353Z,0
2016-03-12T02:24:01.386Z,0
2016-03-12T02:25:01.358Z,0
2016-03-12T02:26:01.219Z,0
2016-03-12T02:27:01.206Z,0
2016-03-12T02:28:01.350Z,0
2016-03-12T02:29:01.368Z,0
2016-03-12T02:30:01.387Z,0
2016-03-12T02:31:01.420Z,0
2016-03-12T02:32:01.345Z,0
2016-03-12T02:33:01.316Z,0
2016-03-12T02:34:01.319Z,0
2016-03-12T02:35:01.337Z,0
2016-03-12T02:36:01.356Z,0
2016-03-12T02:37:01.327Z,0
2016-03-12T02:38:01.314Z,0
2016-03-12T02:39:01.176Z,0
2016-03-12T02:40:01.304Z,0
2016-03-12T02:41:01.338Z,0
2016-03-12T02:42:01.293Z,0
2016-03-12T02:43:01.296Z,0
2016-03-12T02:44:01.299Z,0
2016-03-12T02:45:01.130Z,0
2016-03-12T02:46:01.320Z,0
2016-03-12T02:47:01.276Z,0
2016-03-12T02:48:01.278Z,0
2016-03-12T02:49:01.298Z,0
2016-03-12T02:50:01.284Z,0
2016-03-12T02:51:01.131Z,0
2016-03-12T02:52:01.273Z,0
2016-03-12T02:53:01.292Z,0
2016-03-12T02:54:01.278Z,0
2016-03-12T02:55:01.267Z,0
2016-03-12T02:56:01.269Z,0
2016-03-12T02:57:01.256Z,0
2016-03-12T02:58:01.275Z,0
2016-03-12T02:59:01.246Z,0
2016-03-12T03:00:01.311Z,0
2016-03-12T03:01:01.282Z,0
2016-03-12T03:02:01.253Z,0
2016-03-12T03:03:01.256Z,0
2016-03-12T03:04:01.244Z,0
2016-03-12T03:05:01.230Z,0
2016-03-12T03:06:01.264Z,0
2016-03-12T03:07:01.267Z,0
2016-03-12T03:08:01.224Z,0
2016-03-12T03:09:01.257Z,0
2016-03-12T03:10:01.244Z,0
2016-03-12T03:11:01.216Z,0
2016-03-12T03:12:01.219Z,0
2016-03-12T03:13:01.221Z,0
2016-03-12T03:14:01.207Z,0
2016-03-12T03:15:01.210Z,0
2016-03-12T03:16:01.213Z,0
2016-03-12T03:17:01.232Z,0
2016-03-12T03:18:01.234Z,0
2016-03-12T03:19:01.206Z,0
2016-03-12T03:20:01.192Z,0
2016-03-12T03:21:01.212Z,0
2016-03-12T03:22:01.057Z,0
2016-03-12T03:23:01.201Z,0
2016-03-12T03:24:01.204Z,0
2016-03-12T03:25:01.175Z,0
2016-03-12T03:26:01.209Z,0
2016-03-12T03:27:01.164Z,0
2016-03-12T03:28:01.198Z,0
2016-03-12T03:29:01.155Z,0
2016-03-12T03:30:01.158Z,0
2016-03-12T03:31:01.175Z,0
2016-03-12T03:32:01.147Z,0
2016-03-12T03:33:01.150Z,0
2016-03-12T03:34:01.137Z,0
2016-03-12T03:35:01.139Z,0
2016-03-12T03:36:01.127Z,0
2016-03-12T03:37:01.161Z,0
2016-03-12T03:38:01.147Z,0
2016-03-12T03:39:01.119Z,0
2016-03-12T03:40:00.387Z,0
2016-03-12T03:41:01.125Z,0
2016-03-12T03:42:01.111Z,0
2016-03-12T03:43:01.130Z,0
2016-03-12T03:44:01.101Z,0
2016-03-12T03:45:01.104Z,0
2016-03-12T03:46:01.107Z,0
2016-03-12T03:47:01.110Z,0
2016-03-12T03:48:01.112Z,0
2016-03-12T03:49:01.115Z,0
2016-03-12T03:50:01.087Z,0
2016-03-12T03:51:01.120Z,0
2016-03-12T03:52:01.153Z,0
2016-03-12T03:53:01.078Z,0
2016-03-12T03:54:01.097Z,0
2016-03-12T03:55:01.084Z,0
2016-03-12T03:56:01.086Z,0
2016-03-12T03:57:01.089Z,0
2016-03-12T03:58:01.076Z,0
2016-03-12T03:59:01.064Z,0
2016-03-12T04:00:01.097Z,0
2016-03-12T04:01:01.053Z,0
2016-03-12T04:02:01.072Z,0
2016-03-12T04:03:01.043Z,0
2016-03-12T04:04:01.045Z,0
2016-03-12T04:05:01.047Z,0
2016-03-12T04:06:01.051Z,0
2016-03-12T04:07:01.069Z,0
2016-03-12T04:08:01.056Z,0
2016-03-12T04:09:01.058Z,0
2016-03-12T04:10:01.015Z,0
2016-03-12T04:11:01.049Z,0
2016-03-12T04:12:01.021Z,0
2016-03-12T04:13:01.023Z,0
2016-03-12T04:14:01.010Z,0
2016-03-12T04:15:00.997Z,0
2016-03-12T04:16:01.046Z,0
2016-03-12T04:17:00.252Z,0
2016-03-12T04:18:00.989Z,0
2016-03-12T04:19:01.008Z,0
2016-03-12T04:20:00.995Z,0
2016-03-12T04:21:00.982Z,0
2016-03-12T04:22:00.875Z,0
2016-03-12T04:23:00.987Z,0
2016-03-12T04:24:00.974Z,0
2016-03-12T04:25:00.961Z,0
2016-03-12T04:26:00.965Z,0
2016-03-12T04:27:00.967Z,0
2016-03-12T04:28:00.970Z,0
2016-03-12T04:29:00.956Z,0
2016-03-12T04:30:00.975Z,0
2016-03-12T04:31:00.947Z,0
2016-03-12T04:32:00.950Z,0
2016-03-12T04:33:00.967Z,0
2016-03-12T04:34:00.938Z,0
2016-03-12T04:35:00.941Z,0
2016-03-12T04:36:00.928Z,0
2016-03-12T04:37:00.931Z,0
2016-03-12T04:38:00.933Z,0
2016-03-12T04:39:00.922Z,0
2016-03-12T04:40:00.924Z,0
2016-03-12T04:41:00.911Z,0
2016-03-12T04:42:00.929Z,0
2016-03-12T04:43:00.916Z,0
2016-03-12T04:44:00.919Z,0
2016-03-12T04:45:00.921Z,0
2016-03-12T04:46:00.893Z,0
2016-03-12T04:47:00.895Z,0
2016-03-12T04:48:00.930Z,0
2016-03-12T04:49:00.885Z,0
2016-03-12T04:50:00.904Z,0
2016-03-12T04:51:00.876Z,0
2016-03-12T04:52:00.879Z,0
2016-03-12T04:53:00.896Z,0
2016-03-12T04:54:00.867Z,0
2016-03-12T04:55:00.870Z,0
2016-03-12T04:56:00.873Z,0
2016-03-12T04:57:00.860Z,0
2016-03-12T04:58:00.879Z,0
2016-03-12T04:59:00.881Z,0
2016-03-12T05:00:00.837Z,0
2016-03-12T05:01:00.871Z,0
2016-03-12T05:02:00.842Z,0
2016-03-12T05:03:00.829Z,0
2016-03-12T05:04:00.848Z,0
2016-03-12T05:05:00.834Z,0
2016-03-12T05:06:00.853Z,0
2016-03-12T05:07:00.905Z,0
2016-03-12T05:08:00.813Z,0
2016-03-12T05:09:00.816Z,0
2016-03-12T05:10:00.803Z,0
2016-03-12T05:11:00.837Z,0
2016-03-12T05:12:00.808Z,0
2016-03-12T05:13:00.827Z,0
2016-03-12T05:14:00.798Z,0
2016-03-12T05:15:00.801Z,0
2016-03-12T05:16:00.803Z,4
2016-03-12T05:17:00.790Z,4
2016-03-12T05:18:00.787Z,4
2016-03-12T05:19:00.775Z,4
2016-03-12T05:20:00.750Z,0
2016-03-12T05:21:00.770Z,4
2016-03-12T05:22:00.712Z,4
2016-03-12T05:23:00.690Z,4
2016-03-12T05:24:00.704Z,8
2016-03-12T05:25:00.672Z,8
2016-03-12T05:26:00.669Z,8
2016-03-12T05:27:00.682Z,8
2016-03-12T05:28:00.651Z,12
2016-03-12T05:29:00.652Z,16
2016-03-12T05:30:00.652Z,16
2016-03-12T05:31:00.638Z,20
2016-03-12T05:32:00.639Z,24
2016-03-12T05:33:00.640Z,28
2016-03-12T05:34:00.642Z,32
2016-03-12T05:35:00.628Z,36
2016-03-12T05:36:00.613Z,40
2016-03-12T05:37:00.631Z,48
2016-03-12T05:38:00.603Z,56
2016-03-12T05:39:00.621Z,64
2016-03-12T05:40:00.592Z,72
2016-03-12T05:41:00.612Z,76
2016-03-12T05:42:00.582Z,92
2016-03-12T05:43:00.585Z,100
2016-03-12T05:44:00.603Z,108
2016-03-12T05:45:00.559Z,120
2016-03-12T05:46:00.578Z,132
2016-03-12T05:47:00.564Z,144
2016-03-12T05:48:00.566Z,152
2016-03-12T05:49:00.569Z,164
2016-03-12T05:50:00.557Z,172
2016-03-12T05:51:00.560Z,188
2016-03-12T05:52:00.562Z,200
2016-03-12T05:53:00.565Z,216
2016-03-12T05:54:00.552Z,232
2016-03-12T05:55:00.539Z,248
2016-03-12T05:56:00.541Z,264
2016-03-12T05:57:00.529Z,284
2016-03-12T05:58:00.516Z,300
2016-03-12T05:59:00.535Z,316
2016-03-12T06:00:00.505Z,336
2016-03-12T06:01:00.523Z,352
2016-03-12T06:02:00.527Z,368
2016-03-12T06:03:00.513Z,384
2016-03-12T06:04:00.501Z,404
2016-03-12T06:05:00.519Z,424
2016-03-12T06:06:00.351Z,448
2016-03-12T06:07:00.509Z,472
2016-03-12T06:08:00.481Z,492
2016-03-12T06:09:00.483Z,512
2016-03-12T06:10:00.486Z,536
2016-03-12T06:11:00.489Z,560
2016-03-12T06:12:00.475Z,580
2016-03-12T06:13:00.478Z,608
2016-03-12T06:13:59.714Z,632
2016-03-12T06:15:00.468Z,660
2016-03-12T06:16:00.470Z,684
2016-03-12T06:17:00.458Z,712
2016-03-12T06:18:00.492Z,748
2016-03-12T06:19:00.463Z,780
2016-03-12T06:20:00.434Z,808
2016-03-12T06:21:00.452Z,828
2016-03-12T06:22:00.439Z,852
2016-03-12T06:23:00.427Z,876
2016-03-12T06:24:00.477Z,900
2016-03-12T06:25:00.463Z,936
2016-03-12T06:26:00.435Z,968
2016-03-12T06:27:00.469Z,1000
2016-03-12T06:28:00.410Z,1024
2016-03-12T06:29:00.412Z,1052
2016-03-12T06:30:00.430Z,1080
2016-03-12T06:31:00.386Z,1104
2016-03-12T06:32:00.435Z,1128
2016-03-12T06:33:00.423Z,1152
2016-03-12T06:34:00.378Z,1172
2016-03-12T06:35:00.397Z,1200
2016-03-12T06:36:00.384Z,1220
2016-03-12T06:37:00.355Z,1244
2016-03-12T06:38:00.373Z,1260
2016-03-12T06:39:00.392Z,1284
2016-03-12T06:40:00.363Z,1304
2016-03-12T06:41:00.381Z,1324
2016-03-12T06:42:00.353Z,1344
2016-03-12T06:43:00.356Z,1368
2016-03-12T06:44:00.359Z,1388
2016-03-12T06:45:00.361Z,1404
2016-03-12T06:46:00.348Z,1424
2016-03-12T06:47:00.351Z,1440
2016-03-12T06:48:00.354Z,1456
2016-03-12T06:49:00.184Z,1480
2016-03-12T06:50:00.327Z,1496
2016-03-12T06:51:00.314Z,1532
2016-03-12T06:52:00.333Z,1576
2016-03-12T06:53:00.320Z,1628
2016-03-12T06:54:00.307Z,1684
2016-03-12T06:55:00.325Z,1732
2016-03-12T06:56:00.297Z,1776
2016-03-12T06:57:00.299Z,1824
2016-03-12T06:58:00.318Z,1864
2016-03-12T06:59:00.273Z,1908
2016-03-12T07:00:00.277Z,1956
2016-03-12T07:01:00.310Z,2008
2016-03-12T07:02:00.282Z,2048
2016-03-12T07:03:00.299Z,2084
2016-03-12T07:04:00.287Z,2124
2016-03-12T07:05:00.259Z,2160
2016-03-12T07:06:00.261Z,2200
2016-03-12T07:07:00.265Z,2228
2016-03-12T07:08:00.251Z,2256
2016-03-12T07:09:00.270Z,2284
2016-03-12T07:10:00.287Z,2312
2016-03-12T07:11:00.259Z,2332
2016-03-12T07:12:00.246Z,2356
2016-03-12T07:13:00.264Z,2400
2016-03-12T07:14:00.236Z,2420
2016-03-12T07:15:00.222Z,2464
2016-03-12T07:16:00.242Z,2504
2016-03-12T07:17:00.228Z,2540
2016-03-12T07:18:00.215Z,2580
2016-03-12T07:19:00.250Z,2624
2016-03-12T07:20:00.221Z,2672
2016-03-12T07:21:00.208Z,2740
2016-03-12T07:22:00.225Z,2816
2016-03-12T07:23:00.213Z,2896
2016-03-12T07:24:00.216Z,2976
2016-03-12T07:25:00.203Z,3040
2016-03-12T07:26:00.190Z,3100
2016-03-12T07:27:00.193Z,3160
2016-03-12T07:28:00.196Z,3224
2016-03-12T07:29:00.214Z,3280
2016-03-12T07:30:00.185Z,3356
2016-03-12T07:31:00.172Z,3424
2016-03-12T07:32:00.191Z,3504
2016-03-12T07:33:00.162Z,3580
2016-03-12T07:34:00.165Z,3652
2016-03-12T07:35:00.167Z,3704
2016-03-12T07:36:00.155Z,3760
2016-03-12T07:37:00.173Z,3776
2016-03-12T07:38:00.160Z,3816
2016-03-12T07:39:00.162Z,3872
2016-03-12T07:40:00.149Z,3928
2016-03-12T07:41:00.152Z,3988
2016-03-12T07:42:00.154Z,4052
2016-03-12T07:43:00.143Z,4108
2016-03-12T07:44:00.145Z,4144
2016-03-12T07:45:00.132Z,4172
2016-03-12T07:46:00.134Z,4200
2016-03-12T07:47:00.137Z,4232
2016-03-12T07:48:00.140Z,4264
2016-03-12T07:49:00.142Z,4284
2016-03-12T07:50:00.145Z,4332
2016-03-12T07:51:00.132Z,4380
2016-03-12T07:52:00.135Z,4440
2016-03-12T07:53:00.138Z,4496
2016-03-12T07:54:00.140Z,4540
2016-03-12T07:55:00.144Z,4616
2016-03-12T07:56:00.130Z,4656
2016-03-12T07:56:59.961Z,4712
2016-03-12T07:58:00.119Z,4744
2016-03-12T07:59:00.122Z,4772
2016-03-12T08:00:00.125Z,4804
2016-03-12T08:01:00.127Z,4820
2016-03-12T08:02:00.130Z,4844
2016-03-12T08:03:00.101Z,4912
2016-03-12T08:04:00.105Z,4988
2016-03-12T08:05:00.091Z,5048
2016-03-12T08:06:00.094Z,5096
2016-03-12T08:07:00.113Z,5156
2016-03-12T08:08:00.116Z,5224
2016-03-12T08:09:00.087Z,5280
2016-03-12T08:10:00.074Z,5328
2016-03-12T08:11:00.076Z,5372
2016-03-12T08:12:00.079Z,5404
2016-03-12T08:13:00.067Z,5440
2016-03-12T08:14:00.101Z,5556
2016-03-12T08:15:00.087Z,5664
2016-03-12T08:16:00.090Z,5676
2016-03-12T08:17:00.093Z,5688
2016-03-12T08:18:00.064Z,5724
2016-03-12T08:19:00.083Z,5776
2016-03-12T08:20:00.086Z,5840
2016-03-12T08:21:00.088Z,5912
2016-03-12T08:22:00.075Z,5992
2016-03-12T08:23:00.094Z,6064
2016-03-12T08:24:00.080Z,6100
2016-03-12T08:25:00.052Z,6112
2016-03-12T08:26:00.055Z,6072
2016-03-12T08:27:00.057Z,6000
2016-03-12T08:28:00.075Z,5956
2016-03-12T08:29:00.047Z,6072
2016-03-12T08:30:00.065Z,5884
2016-03-12T08:31:00.069Z,5864
2016-03-12T08:32:00.055Z,5852
2016-03-12T08:33:00.058Z,5828
2016-03-12T08:34:00.076Z,5836
2016-03-12T08:35:00.063Z,5900
2016-03-12T08:36:00.035Z,5976
2016-03-12T08:37:00.052Z,6044
2016-03-12T08:38:00.055Z,6128
2016-03-12T08:39:00.074Z,6212
2016-03-12T08:40:00.046Z,6300
2016-03-12T08:41:00.048Z,6436
2016-03-12T08:42:00.082Z,6512
2016-03-12T08:43:00.054Z,6568
2016-03-12T08:44:00.040Z,6676
2016-03-12T08:45:00.042Z,7124
2016-03-12T08:46:00.092Z,6608
2016-03-12T08:47:00.048Z,6288
2016-03-12T08:48:00.036Z,6112
2016-03-12T08:49:00.053Z,6032
2016-03-12T08:50:00.041Z,6052
2016-03-12T08:51:00.044Z,6128
2016-03-12T08:52:00.047Z,6216
2016-03-12T08:53:00.064Z,6344
2016-03-12T08:54:00.052Z,6488
2016-03-12T08:55:00.039Z,6652
2016-03-12T08:56:00.057Z,6688
2016-03-12T08:57:00.044Z,6700
2016-03-12T08:58:00.030Z,6692
2016-03-12T08:59:00.050Z,6728
2016-03-12T09:00:00.052Z,6748
2016-03-12T09:01:00.039Z,6756
2016-03-12T09:02:00.026Z,6804
2016-03-12T09:03:00.029Z,6760
2016-03-12T09:04:00.032Z,6628
2016-03-12T09:05:00.018Z,6528
2016-03-12T09:06:00.022Z,6484
2016-03-12T09:07:00.024Z,6532
2016-03-12T09:08:00.043Z,6652
2016-03-12T09:09:00.013Z,6784
2016-03-12T09:10:00.016Z,7040
2016-03-12T09:11:00.035Z,7224
2016-03-12T09:12:00.006Z,7340
2016-03-12T09:13:00.009Z,7416
2016-03-12T09:14:00.011Z,7424
2016-03-12T09:15:00.015Z,7412
2016-03-12T09:16:00.017Z,7336
2016-03-12T09:17:00.020Z,7296
2016-03-12T09:18:00.023Z,7284
2016-03-12T09:19:00.009Z,7204
2016-03-12T09:20:00.028Z,7184
2016-03-12T09:21:00.015Z,7132
2016-03-12T09:22:00.065Z,7084
2016-03-12T09:23:00.020Z,7020
2016-03-12T09:24:00.008Z,6976
2016-03-12T09:25:00.010Z,6972
2016-03-12T09:26:00.013Z,7068
2016-03-12T09:27:00.031Z,7300
2016-03-12T09:28:00.002Z,7292
2016-03-12T09:29:00.022Z,7284
2016-03-12T09:29:59.992Z,7252
2016-03-12T09:31:00.011Z,7148
2016-03-12T09:31:59.997Z,7084
2016-03-12T09:33:00.000Z,7024
2016-03-12T09:34:00.003Z,6964
2016-03-12T09:35:00.005Z,7028
2016-03-12T09:35:59.992Z,6908
2016-03-12T09:37:00.010Z,6836
2016-03-12T09:37:59.998Z,6780
2016-03-12T09:38:59.985Z,6800
2016-03-12T09:39:59.831Z,6872
2016-03-12T09:40:59.991Z,6968
2016-03-12T09:42:00.024Z,6864
2016-03-12T09:42:59.995Z,6904
2016-03-12T09:44:00.014Z,6908
2016-03-12T09:45:00.001Z,6924
2016-03-12T09:46:00.004Z,6808
2016-03-12T09:47:00.022Z,6712
2016-03-12T09:47:59.993Z,6672
2016-03-12T09:48:59.996Z,6728
2016-03-12T09:49:59.999Z,7564
2016-03-12T09:51:00.001Z,7480
2016-03-12T09:52:00.004Z,7412
2016-03-12T09:53:00.007Z,6508
2016-03-12T09:54:00.009Z,6444
2016-03-12T09:55:00.169Z,6408
2016-03-12T09:56:00.000Z,6376
2016-03-12T09:57:00.002Z,6432
2016-03-12T09:58:00.005Z,6816
2016-03-12T09:58:59.991Z,6648
2016-03-12T10:00:00.025Z,6544
2016-03-12T10:00:59.997Z,6536
2016-03-12T10:02:00.016Z,6620
2016-03-12T10:03:00.002Z,6892
2016-03-12T10:04:00.005Z,6868
2016-03-12T10:05:00.024Z,6912
2016-03-12T10:06:00.010Z,7232
2016-03-12T10:07:00.007Z,7680
2016-03-12T10:07:59.995Z,7448
2016-03-12T10:08:59.998Z,8156
2016-03-12T10:10:00.000Z,7668
2016-03-12T10:11:00.034Z,7856
2016-03-12T10:12:00.006Z,7864
2016-03-12T10:12:59.992Z,8180
2016-03-12T10:14:00.011Z,9196
2016-03-12T10:15:00.014Z,9024
2016-03-12T10:16:00.001Z,9540
2016-03-12T10:17:00.019Z,9800
2016-03-12T10:18:00.006Z,9108
2016-03-12T10:19:00.009Z,9248
2016-03-12T10:20:00.027Z,9540
2016-03-12T10:20:59.998Z,9576
2016-03-12T10:22:00.033Z,9160
2016-03-12T10:23:00.004Z,9564
2016-03-12T10:24:00.022Z,9404
2016-03-12T10:25:00.008Z,8720
2016-03-12T10:26:00.011Z,8436
2016-03-12T10:27:00.030Z,9044
2016-03-12T10:28:00.017Z,8552
2016-03-12T10:29:00.019Z,8968
2016-03-12T10:30:00.039Z,8604
2016-03-12T10:31:00.025Z,8808
2016-03-12T10:32:00.027Z,8036
2016-03-12T10:33:00.046Z,7684
2016-03-12T10:34:00.018Z,7972
2016-03-12T10:35:00.004Z,8048
2016-03-12T10:36:00.023Z,7856
2016-03-12T10:37:00.035Z,7644
2016-03-12T10:38:00.023Z,7424
2016-03-12T10:39:00.025Z,7276
2016-03-12T10:40:00.044Z,8252
2016-03-12T10:41:00.030Z,8436
2016-03-12T10:42:00.034Z,8256
2016-03-12T10:43:00.052Z,8312
2016-03-12T10:44:00.023Z,8180
2016-03-12T10:45:00.058Z,8132
2016-03-12T10:46:00.028Z,7976
2016-03-12T10:47:00.030Z,7864
2016-03-12T10:48:00.050Z,7764
2016-03-12T10:49:00.036Z,7628
2016-03-12T10:50:00.039Z,7532
2016-03-12T10:51:00.042Z,7448
2016-03-12T10:52:00.013Z,7452
2016-03-12T10:53:00.047Z,7332
2016-03-12T10:54:00.018Z,7396
2016-03-12T10:55:00.038Z,7344
2016-03-12T10:56:00.024Z,7308
2016-03-12T10:57:00.043Z,7268
2016-03-12T10:58:00.045Z,7232
2016-03-12T10:59:00.048Z,7104
2016-03-12T11:00:00.035Z,7088
2016-03-12T11:00:59.896Z,7016
2016-03-12T11:02:00.056Z,6964
2016-03-12T11:03:00.026Z,6916
2016-03-12T11:04:00.062Z,6832
2016-03-12T11:05:00.048Z,6772
2016-03-12T11:06:00.051Z,6936
2016-03-12T11:07:00.054Z,6876
2016-03-12T11:08:00.040Z,6748
2016-03-12T11:09:00.028Z,6708
2016-03-12T11:10:00.030Z,6660
2016-03-12T11:11:00.049Z,6584
2016-03-12T11:12:00.051Z,6760
2016-03-12T11:13:00.054Z,6748
2016-03-12T11:14:00.041Z,6744
2016-03-12T11:15:00.059Z,6724
2016-03-12T11:16:00.062Z,6692
2016-03-12T11:17:00.049Z,6692
2016-03-12T11:18:00.068Z,6448
2016-03-12T11:19:00.070Z,6676
2016-03-12T11:20:00.072Z,6648
2016-03-12T11:21:00.060Z,6676
2016-03-12T11:22:00.183Z,6784
2016-03-12T11:23:00.909Z,6672
2016-03-12T11:24:00.333Z,6608
2016-03-12T11:25:03.542Z,6656
2016-03-12T11:25:59.905Z,6672
2016-03-12T11:27:00.063Z,6672
2016-03-12T11:28:00.347Z,6752
2016-03-12T11:29:00.116Z,6696
2016-03-12T11:30:00.056Z,6484
2016-03-12T11:31:00.058Z,6044
2016-03-12T11:32:00.076Z,6608
2016-03-12T11:33:00.080Z,6728
2016-03-12T11:34:00.098Z,6692
2016-03-12T11:35:00.069Z,6688
2016-03-12T11:36:00.088Z,6868
2016-03-12T11:37:00.059Z,6776
2016-03-12T11:38:00.062Z,6904
2016-03-12T11:38:59.986Z,6956
2016-03-12T11:40:00.052Z,7016
2016-03-12T11:41:00.054Z,6996
2016-03-12T11:42:00.073Z,7108
2016-03-12T11:43:00.075Z,6916
2016-03-12T11:44:00.125Z,5564
2016-03-12T11:45:00.065Z,5492
2016-03-12T11:45:59.927Z,5640
2016-03-12T11:47:00.071Z,6756
2016-03-12T11:48:00.089Z,5724
2016-03-12T11:49:00.076Z,6264
2016-03-12T11:50:00.063Z,7640
2016-03-12T11:51:00.081Z,7660
2016-03-12T11:52:00.084Z,7800
2016-03-12T11:53:00.071Z,7648
2016-03-12T11:54:00.074Z,7336
2016-03-12T11:55:00.092Z,6032
2016-03-12T11:56:00.094Z,5880
2016-03-12T11:57:00.097Z,7168
2016-03-12T11:58:00.085Z,7512
2016-03-12T11:59:00.072Z,7216
2016-03-12T12:00:00.105Z,6612
2016-03-12T12:01:00.077Z,7180
2016-03-12T12:02:00.080Z,7060
2016-03-12T12:03:00.099Z,6844
2016-03-12T12:04:00.085Z,5620
2016-03-12T12:05:00.087Z,5680
2016-03-12T12:06:00.090Z,5716
2016-03-12T12:07:00.093Z,5808
2016-03-12T12:08:00.111Z,5984
2016-03-12T12:09:00.099Z,6140
2016-03-12T12:10:00.101Z,6232
2016-03-12T12:11:00.104Z,6376
2016-03-12T12:12:00.090Z,6352
2016-03-12T12:13:00.109Z,6516
2016-03-12T12:14:00.112Z,6984
2016-03-12T12:15:00.114Z,7532
2016-03-12T12:16:00.117Z,8024
2016-03-12T12:17:00.120Z,7776
2016-03-12T12:18:00.138Z,7612
2016-03-12T12:19:00.094Z,7556
2016-03-12T12:20:00.112Z,7540
2016-03-12T12:21:00.115Z,7384
2016-03-12T12:22:00.118Z,7000
2016-03-12T12:23:00.120Z,6508
2016-03-12T12:24:00.123Z,6216
2016-03-12T12:25:00.126Z,6064
2016-03-12T12:26:00.113Z,6056
2016-03-12T12:27:00.115Z,6080
2016-03-12T12:28:00.119Z,6312
2016-03-12T12:29:00.121Z,6460
2016-03-12T12:30:00.124Z,6644
2016-03-12T12:31:00.142Z,7136
2016-03-12T12:32:00.113Z,7792
2016-03-12T12:33:00.132Z,7056
2016-03-12T12:34:00.134Z,7212
2016-03-12T12:35:00.138Z,7312
2016-03-12T12:36:00.124Z,7236
2016-03-12T12:37:00.143Z,7384
2016-03-12T12:38:00.129Z,7092
2016-03-12T12:39:00.163Z,7692
2016-03-12T12:40:00.134Z,7944
2016-03-12T12:41:00.153Z,7976
2016-03-12T12:42:00.124Z,7780
2016-03-12T12:43:00.127Z,7716
2016-03-12T12:44:00.145Z,7744
2016-03-12T12:45:00.148Z,7836
2016-03-12T12:46:00.135Z,7656
2016-03-12T12:47:00.169Z,7084
2016-03-12T12:48:00.140Z,7116
2016-03-12T12:49:00.174Z,7276
2016-03-12T12:50:00.146Z,7436
2016-03-12T12:51:00.148Z,7844
2016-03-12T12:52:00.167Z,9200
2016-03-12T12:53:00.170Z,9440
2016-03-12T12:54:00.188Z,9508
2016-03-12T12:55:00.175Z,9440
2016-03-12T12:56:00.178Z,9048
2016-03-12T12:57:00.165Z,8888
2016-03-12T12:58:00.167Z,8728
2016-03-12T12:59:00.169Z,7984
2016-03-12T13:00:00.172Z,8296
2016-03-12T13:01:00.191Z,7940
2016-03-12T13:02:00.178Z,8040
2016-03-12T13:03:00.197Z,8276
2016-03-12T13:04:00.200Z,7592
2016-03-12T13:05:00.171Z,7352
2016-03-12T13:06:00.048Z,7068
2016-03-12T13:07:00.177Z,6896
2016-03-12T13:08:00.179Z,6712
2016-03-12T13:09:00.213Z,6516
2016-03-12T13:10:00.184Z,6364
2016-03-12T13:11:00.187Z,6304
2016-03-12T13:12:00.205Z,6324
2016-03-12T13:13:00.192Z,6348
2016-03-12T13:14:00.211Z,6388
2016-03-12T13:15:00.245Z,6488
2016-03-12T13:16:00.216Z,6592
2016-03-12T13:17:00.234Z,6680
2016-03-12T13:18:00.221Z,6732
2016-03-12T13:19:00.224Z,6784
2016-03-12T13:20:00.226Z,6772
2016-03-12T13:21:00.245Z,6724
2016-03-12T13:22:00.232Z,6728
2016-03-12T13:23:00.219Z,6804
2016-03-12T13:24:00.269Z,6872
2016-03-12T13:25:00.240Z,6768
2016-03-12T13:26:00.242Z,6616
2016-03-12T13:27:00.245Z,6456
2016-03-12T13:28:00.247Z,6328
2016-03-12T13:29:00.267Z,6252
2016-03-12T13:30:00.253Z,6216
2016-03-12T13:31:00.241Z,6116
2016-03-12T13:32:00.228Z,6080
2016-03-12T13:33:00.277Z,6156
2016-03-12T13:34:00.249Z,6404
2016-03-12T13:35:00.267Z,6688
2016-03-12T13:36:00.255Z,6888
2016-03-12T13:37:00.241Z,6852
2016-03-12T13:38:00.103Z,6788
2016-03-12T13:39:00.247Z,6800
2016-03-12T13:40:00.265Z,6704
2016-03-12T13:41:00.252Z,6712
2016-03-12T13:42:00.270Z,6708
2016-03-12T13:43:00.257Z,6484
2016-03-12T13:44:00.260Z,6180
2016-03-12T13:45:00.262Z,5932
2016-03-12T13:46:00.266Z,5696
2016-03-12T13:47:00.284Z,5444
2016-03-12T13:48:00.302Z,5120
2016-03-12T13:49:00.273Z,4876
2016-03-12T13:50:00.276Z,4700
2016-03-12T13:51:00.278Z,4616
2016-03-12T13:52:00.297Z,4560
2016-03-12T13:53:00.283Z,4552